createdAt,value
2018-05-04T00:00:54.988Z,28.67
2018-05-04T00:03:21.986Z,24.63
2018-05-04T00:05:49.010Z,20.70
2018-05-04T00:08:15.996Z,21.93
2018-05-04T00:10:42.978Z,26.30
2018-05-04T00:13:10.006Z,25.70
2018-05-04T00:15:37.097Z,23.47
2018-05-04T00:18:04.082Z,25.13
2018-05-04T00:20:31.171Z,23.30
2018-05-04T00:22:58.142Z,24.77
2018-05-04T00:25:25.950Z,22.63
2018-05-04T00:27:52.984Z,26.20
2018-05-04T00:30:22.908Z,22.43
2018-05-04T00:32:49.942Z,24.73
2018-05-04T00:35:17.909Z,25.83
2018-05-04T00:37:45.612Z,23.23
2018-05-04T00:40:13.531Z,26.97
2018-05-04T00:42:40.542Z,24.57
2018-05-04T00:47:48.390Z,26.95
2018-05-04T00:50:16.348Z,26.93
2018-05-04T00:52:45.308Z,26.47
2018-05-04T00:55:12.326Z,28.03
2018-05-04T00:57:39.319Z,28.77
2018-05-04T01:00:07.257Z,24.90
2018-05-04T01:02:34.267Z,25.37
2018-05-04T01:05:01.260Z,27.50
2018-05-04T01:07:28.243Z,29.60
2018-05-04T01:09:55.275Z,24.73
2018-05-04T01:12:22.269Z,24.67
2018-05-04T01:14:49.257Z,23.00
2018-05-04T01:17:16.286Z,23.93
2018-05-04T01:19:43.275Z,24.77
2018-05-04T01:22:11.086Z,25.33
2018-05-04T01:24:38.107Z,24.47
2018-05-04T01:27:06.073Z,27.13
2018-05-04T01:29:33.080Z,29.83
2018-05-04T01:32:00.109Z,26.40
2018-05-04T01:34:27.953Z,27.27
2018-05-04T01:36:54.948Z,32.13
2018-05-04T01:39:21.975Z,31.07
2018-05-04T01:41:48.957Z,32.50
2018-05-04T01:44:15.941Z,33.73
2018-05-04T01:46:43.873Z,32.17
2018-05-04T01:49:10.861Z,27.53
2018-05-04T01:51:38.799Z,26.37
2018-05-04T01:54:05.828Z,30.13
2018-05-04T01:56:32.847Z,31.47
2018-05-04T01:58:59.797Z,29.17
2018-05-04T02:01:26.920Z,28.20
2018-05-04T02:03:53.902Z,27.37
2018-05-04T02:06:20.887Z,37.87
2018-05-04T02:08:47.914Z,33.10
2018-05-04T02:13:54.305Z,38.20
2018-05-04T02:16:22.096Z,37.03
2018-05-04T02:18:49.079Z,40.87
2018-05-04T02:21:16.946Z,37.60
2018-05-04T02:23:44.876Z,37.20
2018-05-04T02:26:11.870Z,38.97
2018-05-04T02:28:40.215Z,42.47
2018-05-04T02:31:09.518Z,42.43
2018-05-04T02:33:36.500Z,44.50
2018-05-04T02:36:03.525Z,47.57
2018-05-04T02:38:30.536Z,44.93
2018-05-04T02:40:57.518Z,48.53
2018-05-04T02:43:25.385Z,44.93
2018-05-04T02:45:52.383Z,46.60
2018-05-04T02:48:19.357Z,44.23
2018-05-04T02:50:46.401Z,51.57
2018-05-04T02:53:13.372Z,45.43
2018-05-04T02:55:40.367Z,47.07
2018-05-04T02:58:08.236Z,44.73
2018-05-04T03:00:35.208Z,44.93
2018-05-04T03:03:02.186Z,42.90
2018-05-04T03:05:29.231Z,47.20
2018-05-04T03:07:56.219Z,48.10
2018-05-04T03:10:23.214Z,43.10
2018-05-04T03:12:50.242Z,41.53
2018-05-04T03:15:17.220Z,45.33
2018-05-04T03:17:44.210Z,37.97
2018-05-04T03:20:11.268Z,43.23
2018-05-04T03:22:39.137Z,39.53
2018-05-04T03:25:07.135Z,44.87
2018-05-04T03:27:34.158Z,50.73
2018-05-04T03:30:01.139Z,47.27
2018-05-04T03:32:28.123Z,46.53
2018-05-04T03:34:55.158Z,42.97
2018-05-04T03:37:22.141Z,43.37
2018-05-04T03:42:30.503Z,46.72
2018-05-04T03:44:58.191Z,48.07
2018-05-04T03:47:25.988Z,44.33
2018-05-04T03:49:53.767Z,49.00
2018-05-04T03:52:20.735Z,47.40
2018-05-04T03:54:47.721Z,52.13
2018-05-04T03:57:20.753Z,40.63
2018-05-04T03:59:59.512Z,44.93
2018-05-04T04:02:38.355Z,44.93
2018-05-04T04:05:06.294Z,44.27
2018-05-04T04:07:33.276Z,49.27
2018-05-04T04:10:00.375Z,47.23
2018-05-04T04:12:27.354Z,43.57
2018-05-04T04:14:54.342Z,42.60
2018-05-04T04:17:21.368Z,41.60
2018-05-04T04:19:48.348Z,42.13
2018-05-04T04:22:15.329Z,41.57
2018-05-04T04:24:42.345Z,38.47
2018-05-04T04:27:09.324Z,44.47
2018-05-04T04:29:36.310Z,40.90
2018-05-04T04:32:03.341Z,44.43
2018-05-04T04:34:30.322Z,40.80
2018-05-04T04:36:57.322Z,40.70
2018-05-04T04:39:24.434Z,37.30
2018-05-04T04:41:51.370Z,40.10
2018-05-04T04:44:18.358Z,43.97
2018-05-04T04:46:45.381Z,48.13
2018-05-04T04:49:12.368Z,39.97
2018-05-04T04:51:39.356Z,39.30
2018-05-04T04:54:06.416Z,41.77
2018-05-04T04:56:33.409Z,44.53
2018-05-04T04:59:00.423Z,42.97
2018-05-04T05:01:27.443Z,43.40
2018-05-04T05:06:32.944Z,45.83
2018-05-04T05:08:59.920Z,45.10
2018-05-04T05:11:26.902Z,46.23
2018-05-04T05:13:53.987Z,42.17
2018-05-04T05:16:21.854Z,42.73
2018-05-04T05:18:48.834Z,42.13
2018-05-04T05:21:15.859Z,44.83
2018-05-04T05:23:42.920Z,46.20
2018-05-04T05:26:09.925Z,40.60
2018-05-04T05:28:37.787Z,45.57
2018-05-04T05:31:05.752Z,40.73
2018-05-04T05:33:34.007Z,39.10
2018-05-04T05:36:01.036Z,42.60
2018-05-04T05:38:28.019Z,42.07
2018-05-04T05:40:55.950Z,41.87
2018-05-04T05:43:23.913Z,42.50
2018-05-04T05:45:50.899Z,41.30
2018-05-04T05:48:18.611Z,40.10
2018-05-04T05:50:45.637Z,41.13
2018-05-04T05:53:12.944Z,37.87
2018-05-04T05:55:39.937Z,38.67
2018-05-04T05:58:06.987Z,41.90
2018-05-04T06:00:35.872Z,38.27
2018-05-04T06:03:02.853Z,36.47
2018-05-04T06:05:29.875Z,40.97
2018-05-04T06:07:56.853Z,43.00
2018-05-04T06:10:23.839Z,38.63
2018-05-04T06:12:50.855Z,37.87
2018-05-04T06:15:17.835Z,37.17
2018-05-04T06:17:45.287Z,36.53
2018-05-04T06:20:12.321Z,35.80
2018-05-04T06:22:39.299Z,36.57
2018-05-04T06:25:10.344Z,37.23
2018-05-04T06:30:15.233Z,39.03
2018-05-04T06:32:42.258Z,37.83
2018-05-04T06:35:13.008Z,37.50
2018-05-04T06:37:40.031Z,37.40
2018-05-04T06:40:07.061Z,38.23
2018-05-04T06:42:34.046Z,41.33
2018-05-04T06:45:01.112Z,40.27
2018-05-04T06:47:28.134Z,39.43
2018-05-04T06:49:55.121Z,39.73
2018-05-04T06:52:22.111Z,36.10
2018-05-04T06:54:49.138Z,36.87
2018-05-04T06:57:16.182Z,36.10
2018-05-04T06:59:43.166Z,39.90
2018-05-04T07:02:11.133Z,41.83
2018-05-04T07:04:39.075Z,34.40
2018-05-04T07:07:10.218Z,33.40
2018-05-04T07:09:37.233Z,37.70
2018-05-04T07:12:04.221Z,36.23
2018-05-04T07:14:31.655Z,44.30
2018-05-04T07:16:58.673Z,41.07
2018-05-04T07:19:25.668Z,44.93
2018-05-04T07:21:52.673Z,37.63
2018-05-04T07:24:19.704Z,47.47
2018-05-04T07:26:46.690Z,41.33
2018-05-04T07:29:14.501Z,40.70
2018-05-04T07:31:41.517Z,44.43
2018-05-04T07:34:08.505Z,41.33
2018-05-04T07:36:35.498Z,40.73
2018-05-04T07:39:02.519Z,39.07
2018-05-04T07:41:29.503Z,43.93
2018-05-04T07:43:56.490Z,43.53
2018-05-04T07:46:23.768Z,46.57
2018-05-04T07:48:50.752Z,40.57
2018-05-04T07:51:17.734Z,41.50
2018-05-04T07:56:35.113Z,45.45
2018-05-04T07:59:02.143Z,37.27
2018-05-04T08:01:29.139Z,39.93
2018-05-04T08:03:56.131Z,43.30
2018-05-04T08:06:23.140Z,46.40
2018-05-04T08:08:50.133Z,43.20
2018-05-04T08:11:17.118Z,41.27
2018-05-04T08:13:44.927Z,47.13
2018-05-04T08:16:11.917Z,42.93
2018-05-04T08:18:38.903Z,49.80
2018-05-04T08:21:05.928Z,44.47
2018-05-04T08:23:32.937Z,44.07
2018-05-04T08:26:00.759Z,44.13
2018-05-04T08:28:27.775Z,43.90
2018-05-04T08:30:54.753Z,45.00
2018-05-04T08:33:21.746Z,43.33
2018-05-04T08:35:48.760Z,44.23
2018-05-04T08:38:15.741Z,42.90
2018-05-04T08:40:43.048Z,42.20
2018-05-04T08:45:48.713Z,41.30
2018-05-04T08:48:15.749Z,37.63
2018-05-04T08:50:42.717Z,38.10
2018-05-04T08:53:10.645Z,41.13
2018-05-04T08:55:37.665Z,40.90
2018-05-04T08:58:04.659Z,40.07
2018-05-04T09:00:31.641Z,39.40
2018-05-04T09:02:58.650Z,37.90
2018-05-04T09:05:25.665Z,40.77
2018-05-04T09:07:52.638Z,41.63
2018-05-04T09:10:19.649Z,42.67
2018-05-04T09:12:47.891Z,46.27
2018-05-04T09:15:14.836Z,40.60
2018-05-04T09:17:41.854Z,38.67
2018-05-04T09:20:08.930Z,41.53
2018-05-04T09:22:36.965Z,38.83
2018-05-04T09:25:04.800Z,35.73
2018-05-04T09:27:31.786Z,36.13
2018-05-04T09:29:58.775Z,42.63
2018-05-04T09:32:29.447Z,36.83
2018-05-04T09:34:56.429Z,36.77
2018-05-04T09:37:23.430Z,38.00
2018-05-04T09:39:50.427Z,35.23
2018-05-04T09:42:17.426Z,36.33
2018-05-04T09:44:44.418Z,37.37
2018-05-04T09:47:11.437Z,36.17
2018-05-04T09:49:39.266Z,40.53
2018-05-04T09:52:06.256Z,32.73
2018-05-04T09:54:33.275Z,34.73
2018-05-04T09:57:00.268Z,31.50
2018-05-04T09:59:27.260Z,31.07
2018-05-04T10:01:54.272Z,36.40
2018-05-04T10:04:21.361Z,29.40
2018-05-04T10:06:48.244Z,30.47
2018-05-04T10:11:55.734Z,35.63
2018-05-04T10:14:24.090Z,30.87
2018-05-04T10:16:51.156Z,29.53
2018-05-04T10:19:18.386Z,29.17
2018-05-04T10:21:45.412Z,28.87
2018-05-04T10:24:12.395Z,26.37
2018-05-04T10:26:39.373Z,22.20
2018-05-04T10:29:06.389Z,24.27
2018-05-04T10:31:33.375Z,26.27
2018-05-04T10:34:00.361Z,31.83
2018-05-04T10:36:27.474Z,22.10
2018-05-04T10:38:54.531Z,21.80
2018-05-04T10:41:21.439Z,23.73
2018-05-04T10:43:50.319Z,22.47
2018-05-04T10:46:17.305Z,23.70
2018-05-04T10:48:44.284Z,23.73
2018-05-04T10:51:11.306Z,21.27
2018-05-04T10:53:39.100Z,14.90
2018-05-04T10:56:07.025Z,19.13
2018-05-04T10:58:34.985Z,24.63
2018-05-04T11:01:01.967Z,19.00
2018-05-04T11:03:28.949Z,16.80
2018-05-04T11:05:55.975Z,27.30
2018-05-04T11:08:23.943Z,18.47
2018-05-04T11:10:50.931Z,24.03
2018-05-04T11:13:17.959Z,18.17
2018-05-04T11:15:44.958Z,13.40
2018-05-04T11:18:12.029Z,15.73
2018-05-04T11:20:39.053Z,15.60
2018-05-04T11:23:06.851Z,15.07
2018-05-04T11:25:34.660Z,17.23
2018-05-04T11:28:01.665Z,16.20
2018-05-04T11:30:28.642Z,13.00
2018-05-04T11:32:55.626Z,18.33
2018-05-04T11:38:02.570Z,14.65
2018-05-04T11:40:29.574Z,17.90
2018-05-04T11:42:56.561Z,13.03
2018-05-04T11:45:23.879Z,15.23
2018-05-04T11:47:50.901Z,13.97
2018-05-04T11:50:18.697Z,15.83
2018-05-04T11:52:45.689Z,17.20
2018-05-04T11:55:12.732Z,14.30
2018-05-04T11:57:40.665Z,17.57
2018-05-04T12:02:45.140Z,15.95
2018-05-04T12:05:12.117Z,13.73
2018-05-04T12:07:39.097Z,9.60
2018-05-04T12:10:06.130Z,11.80
2018-05-04T12:12:33.107Z,13.53
2018-05-04T12:15:00.085Z,19.57
2018-05-04T12:17:28.041Z,15.17
2018-05-04T12:19:55.041Z,12.63
2018-05-04T12:22:22.023Z,17.37
2018-05-04T12:24:49.851Z,12.30
2018-05-04T12:27:16.837Z,13.47
2018-05-04T12:29:46.185Z,15.83
2018-05-04T12:32:13.221Z,15.27
2018-05-04T12:34:41.146Z,15.63
2018-05-04T12:37:09.250Z,15.27
2018-05-04T12:39:36.192Z,15.20
2018-05-04T12:42:03.171Z,15.97
2018-05-04T12:44:30.150Z,13.87
2018-05-04T12:46:57.197Z,12.80
2018-05-04T12:49:25.099Z,11.97
2018-05-04T12:51:52.888Z,11.03
2018-05-04T12:54:19.903Z,9.93
2018-05-04T12:56:49.112Z,14.67
2018-05-04T12:59:16.820Z,14.80
2018-05-04T13:01:43.824Z,13.23
2018-05-04T13:04:11.456Z,11.63
2018-05-04T13:06:38.437Z,12.73
2018-05-04T13:09:05.452Z,16.97
2018-05-04T13:11:32.439Z,13.47
2018-05-04T13:13:59.502Z,11.27
2018-05-04T13:19:04.376Z,13.82
2018-05-04T13:21:31.392Z,16.90
2018-05-04T13:23:58.376Z,16.03
2018-05-04T13:26:25.379Z,17.80
2018-05-04T13:28:52.397Z,14.23
2018-05-04T13:31:19.383Z,12.53
2018-05-04T13:33:46.358Z,14.93
2018-05-04T13:36:14.322Z,17.27
2018-05-04T13:38:41.381Z,17.30
2018-05-04T13:41:08.336Z,16.87
2018-05-04T13:43:35.301Z,20.63
2018-05-04T13:46:02.283Z,19.63
2018-05-04T13:48:29.261Z,15.13
2018-05-04T13:50:56.294Z,17.23
2018-05-04T13:53:23.255Z,14.37
2018-05-04T13:55:50.247Z,16.67
2018-05-04T13:58:17.258Z,19.60
2018-05-04T14:00:44.240Z,16.07
2018-05-04T14:03:11.225Z,17.23
2018-05-04T14:05:38.240Z,13.53
2018-05-04T14:08:05.223Z,15.00
2018-05-04T14:10:33.030Z,16.63
2018-05-04T14:13:00.045Z,18.77
2018-05-04T14:15:27.035Z,17.07
2018-05-04T14:17:54.106Z,20.40
2018-05-04T14:20:21.119Z,17.40
2018-05-04T14:22:48.105Z,18.60
2018-05-04T14:25:15.100Z,20.40
2018-05-04T14:27:42.094Z,18.07
2018-05-04T14:30:09.094Z,15.83
2018-05-04T14:32:36.077Z,16.63
2018-05-04T14:35:03.201Z,17.73
2018-05-04T14:37:30.125Z,17.77
2018-05-04T14:39:57.114Z,14.87
2018-05-04T14:45:05.568Z,17.35
2018-05-04T14:47:32.588Z,16.93
2018-05-04T14:49:59.577Z,16.63
2018-05-04T14:52:26.572Z,18.50
2018-05-04T14:54:53.589Z,17.67
2018-05-04T14:57:20.565Z,19.83
2018-05-04T14:59:47.558Z,20.17
2018-05-04T15:02:14.580Z,21.40
2018-05-04T15:04:41.564Z,19.63
2018-05-04T15:07:08.548Z,17.27
2018-05-04T15:09:35.571Z,16.30
2018-05-04T15:12:02.540Z,13.77
2018-05-04T15:14:29.520Z,19.13
2018-05-04T15:16:57.390Z,17.63
2018-05-04T15:19:25.309Z,17.13
2018-05-04T15:21:52.292Z,17.97
2018-05-04T15:24:19.306Z,14.57
2018-05-04T15:26:46.559Z,19.20
2018-05-04T15:29:13.542Z,15.73
2018-05-04T15:31:40.569Z,17.07
2018-05-04T15:34:07.559Z,19.67
2018-05-04T15:36:34.545Z,15.43
2018-05-04T15:39:01.569Z,17.87
2018-05-04T15:41:28.543Z,16.77
2018-05-04T15:46:33.487Z,16.67
2018-05-04T15:49:00.468Z,17.30
2018-05-04T15:51:27.450Z,20.30
2018-05-04T15:53:54.481Z,17.10
2018-05-04T15:56:21.532Z,16.97
2018-05-04T15:58:48.512Z,16.67
2018-05-04T16:01:15.544Z,18.40
2018-05-04T16:03:42.833Z,16.67
2018-05-04T16:06:09.552Z,19.37
2018-05-04T16:08:36.533Z,20.50
2018-05-04T16:11:03.594Z,20.23
2018-05-04T16:13:30.699Z,17.03
2018-05-04T16:15:57.689Z,22.80
2018-05-04T16:18:24.667Z,17.03
2018-05-04T16:20:51.649Z,18.13
2018-05-04T16:23:18.659Z,17.80
2018-05-04T16:25:46.382Z,18.87
2018-05-04T16:28:14.251Z,19.97
2018-05-04T16:30:41.354Z,20.03
2018-05-04T16:33:08.337Z,17.47
2018-05-04T16:35:35.318Z,17.83
2018-05-04T16:38:02.350Z,18.83
2018-05-04T16:40:30.261Z,23.03
2018-05-04T16:42:57.240Z,18.33
2018-05-04T16:45:24.260Z,21.37
2018-05-04T16:47:51.238Z,20.00
2018-05-04T16:50:19.158Z,18.50
2018-05-04T16:52:46.182Z,21.60
2018-05-04T16:55:13.171Z,22.37
2018-05-04T16:57:41.045Z,17.60
2018-05-04T17:00:08.914Z,21.97
2018-05-04T17:02:35.894Z,21.63
2018-05-04T17:07:41.373Z,19.48
2018-05-04T17:10:08.356Z,17.80
2018-05-04T17:12:35.433Z,19.87
2018-05-04T17:15:02.468Z,15.57
2018-05-04T17:17:29.449Z,16.77
2018-05-04T17:19:56.427Z,15.77
2018-05-04T17:22:23.438Z,19.50
2018-05-04T17:24:50.421Z,18.27
2018-05-04T17:27:17.406Z,16.63
2018-05-04T17:29:44.432Z,16.67
2018-05-04T17:32:15.050Z,16.37
2018-05-04T17:34:41.887Z,16.43
2018-05-04T17:37:08.920Z,16.63
2018-05-04T17:39:35.903Z,19.13
2018-05-04T17:42:02.886Z,16.60
2018-05-04T17:44:29.900Z,19.07
2018-05-04T17:46:56.886Z,17.80
2018-05-04T17:49:23.866Z,16.77
2018-05-04T17:51:50.899Z,16.77
2018-05-04T17:54:17.887Z,15.77
2018-05-04T17:56:44.865Z,19.90
2018-05-04T18:01:43.028Z,15.17
2018-05-04T18:04:13.687Z,18.53
2018-05-04T18:06:40.396Z,14.67
2018-05-04T18:09:07.385Z,17.87
2018-05-04T18:11:35.070Z,16.23
2018-05-04T18:14:02.071Z,16.73
2018-05-04T18:16:30.213Z,18.83
2018-05-04T18:18:58.154Z,18.10
2018-05-04T18:21:25.143Z,19.30
2018-05-04T18:23:52.123Z,21.57
2018-05-04T18:26:19.153Z,20.53
2018-05-04T18:31:21.719Z,19.23
2018-05-04T18:33:48.702Z,19.03
2018-05-04T18:36:15.722Z,20.50
2018-05-04T18:38:42.743Z,19.23
2018-05-04T18:41:09.764Z,19.50
2018-05-04T18:43:36.748Z,17.13
2018-05-04T18:46:04.702Z,20.03
2018-05-04T18:48:31.699Z,19.57
2018-05-04T18:50:58.701Z,19.70
2018-05-04T18:53:25.758Z,21.13
2018-05-04T18:55:52.838Z,21.33
2018-05-04T18:58:23.523Z,21.40
2018-05-04T19:00:50.591Z,23.60
2018-05-04T19:03:17.577Z,20.27
2018-05-04T19:05:45.489Z,23.73
2018-05-04T19:08:12.546Z,23.77
2018-05-04T19:10:39.529Z,23.40
2018-05-04T19:13:07.351Z,24.30
2018-05-04T19:15:34.370Z,20.60
2018-05-04T19:18:01.350Z,19.77
2018-05-04T19:20:29.263Z,20.57
2018-05-04T19:22:56.307Z,23.17
2018-05-04T19:25:23.297Z,21.37
2018-05-04T19:27:50.284Z,21.13
2018-05-04T19:30:17.301Z,22.23
2018-05-04T19:32:44.288Z,23.10
2018-05-04T19:35:11.291Z,20.13
2018-05-04T19:37:38.362Z,20.93
2018-05-04T19:40:05.366Z,23.63
2018-05-04T19:42:32.404Z,20.20
2018-05-04T19:44:59.426Z,22.13
2018-05-04T19:47:26.411Z,19.23
2018-05-04T19:49:53.414Z,21.87
2018-05-04T19:52:20.440Z,19.23
2018-05-04T19:54:47.540Z,20.40
2018-05-04T19:59:55.053Z,22.15
2018-05-04T20:02:22.036Z,19.90
2018-05-04T20:04:49.019Z,17.80
2018-05-04T20:07:16.038Z,19.43
2018-05-04T20:09:43.026Z,18.00
2018-05-04T20:12:10.050Z,16.67
2018-05-04T20:14:37.062Z,23.13
2018-05-04T20:17:04.145Z,17.50
2018-05-04T20:19:31.159Z,18.77
2018-05-04T20:21:58.186Z,19.23
2018-05-04T20:24:25.258Z,19.57
2018-05-04T20:26:53.909Z,21.90
2018-05-04T20:29:20.917Z,26.57
2018-05-04T20:31:47.916Z,24.73
2018-05-04T20:34:14.903Z,25.37
2018-05-04T20:36:42.469Z,23.20
2018-05-04T20:39:10.417Z,24.10
2018-05-04T20:41:37.974Z,22.33
2018-05-04T20:44:05.598Z,19.70
2018-05-04T20:46:32.511Z,21.67
2018-05-04T20:48:59.506Z,22.47
2018-05-04T20:51:26.541Z,24.33
2018-05-04T20:53:53.523Z,24.33
2018-05-04T20:56:20.512Z,23.23
2018-05-04T20:58:47.537Z,22.93
2018-05-04T21:01:15.636Z,23.67
2018-05-04T21:03:42.618Z,21.00
2018-05-04T21:06:09.699Z,25.30
2018-05-04T21:08:36.684Z,23.43
2018-05-04T21:11:03.736Z,26.43
2018-05-04T21:13:30.752Z,21.30
2018-05-04T21:15:57.744Z,24.10
2018-05-04T21:18:24.766Z,23.50
2018-05-04T21:20:51.807Z,21.50
2018-05-04T21:23:20.054Z,23.47
2018-05-04T21:28:27.581Z,22.92
2018-05-04T21:30:54.585Z,22.07
2018-05-04T21:33:21.570Z,25.00
2018-05-04T21:35:48.637Z,21.60
2018-05-04T21:38:15.575Z,24.47
2018-05-04T21:40:42.558Z,24.23
2018-05-04T21:43:09.622Z,23.30
2018-05-04T21:45:36.613Z,24.67
2018-05-04T21:48:03.620Z,26.77
2018-05-04T21:50:30.662Z,20.77
2018-05-04T21:52:57.651Z,24.27
2018-05-04T21:55:24.660Z,24.87
2018-05-04T21:57:51.696Z,22.93
2018-05-04T22:00:18.714Z,22.60
2018-05-04T22:02:45.702Z,24.73
2018-05-04T22:05:12.756Z,25.07
2018-05-04T22:07:39.790Z,24.83
2018-05-04T22:10:06.785Z,25.03
2018-05-04T22:12:33.825Z,27.60
2018-05-04T22:15:00.843Z,27.83
2018-05-04T22:17:27.926Z,28.70
2018-05-04T22:19:54.954Z,25.63
2018-05-04T22:22:22.097Z,30.10
2018-05-04T22:24:49.093Z,26.93
2018-05-04T22:27:16.133Z,26.57
2018-05-04T22:29:43.128Z,30.27
2018-05-04T22:32:10.137Z,27.60
2018-05-04T22:34:37.180Z,29.23
2018-05-04T22:37:04.491Z,29.53
2018-05-04T22:39:31.418Z,29.43
2018-05-04T22:41:59.848Z,34.00
2018-05-04T22:44:26.957Z,26.43
2018-05-04T22:46:53.965Z,32.73
2018-05-04T22:52:01.094Z,29.85
2018-05-04T22:54:28.123Z,30.03
2018-05-04T22:56:55.203Z,28.53
2018-05-04T22:59:23.023Z,29.40
2018-05-04T23:01:50.043Z,29.27
2018-05-04T23:04:17.052Z,26.90
2018-05-04T23:06:44.045Z,29.97
2018-05-04T23:09:11.105Z,32.37
2018-05-04T23:11:38.087Z,29.23
2018-05-04T23:14:05.079Z,28.40
2018-05-04T23:16:32.093Z,29.93
2018-05-04T23:21:40.628Z,28.55
2018-05-04T23:24:07.856Z,26.63
2018-05-04T23:29:14.206Z,29.67
2018-05-04T23:31:41.998Z,30.73
2018-05-04T23:34:09.325Z,27.70
2018-05-04T23:36:36.417Z,27.80
2018-05-04T23:39:03.733Z,24.00
2018-05-04T23:41:30.725Z,26.30
2018-05-04T23:43:57.800Z,29.13
2018-05-04T23:46:24.751Z,34.07
2018-05-04T23:48:51.738Z,30.63
2018-05-04T23:51:18.752Z,31.77
2018-05-04T23:53:45.743Z,29.77
2018-05-04T23:56:12.732Z,28.20
2018-05-04T23:58:39.772Z,32.90
